Time;durP1;ratioP1;P1;durP2;ratioP2;P2;SDS_P1;SDS_P2;PMS_P1;PMS_P2;Temp;Humidity;BMP_temperature;BMP_pressure;BME280_temperature;BME280_humidity;BME280_pressure;Samples;Min_cycle;Max_cycle;Signal;HPM_P1;HPM_P2
2022/07/29 00:00:39;;;;;;;10.63;7.43;;;18.60;99.90;19.80;96858.00;;;;5090544;28;20223;-74
2022/07/29 00:03:28;;;;;;;7.83;5.27;;;18.60;99.90;19.50;96859.00;;;;5095722;28;20194;-77
2022/07/29 00:06:17;;;;;;;11.30;6.33;;;18.60;99.90;19.30;96857.00;;;;5102645;28;21235;-72
2022/07/29 00:09:05;;;;;;;11.33;6.50;;;18.50;99.90;19.40;96859.00;;;;5102846;28;20195;-74
2022/07/29 00:11:59;;;;;;;9.63;6.97;;;18.40;99.90;19.30;96861.00;;;;5091348;28;20225;-75
2022/07/29 00:14:48;;;;;;;7.27;6.57;;;18.40;99.90;19.50;96862.00;;;;5095211;28;20670;-74
2022/07/29 00:17:37;;;;;;;9.87;6.67;;;18.30;99.90;19.80;96866.00;;;;5104073;28;20219;-74
2022/07/29 00:20:26;;;;;;;6.97;6.37;;;18.40;99.90;19.80;96862.00;;;;5091343;28;20219;-73
2022/07/29 00:23:14;;;;;;;6.97;6.27;;;18.40;99.90;20.00;96864.00;;;;5095709;28;20203;-73
2022/07/29 00:26:03;;;;;;;7.70;6.83;;;18.40;99.90;20.00;96857.00;;;;5097031;28;20206;-73
2022/07/29 00:28:54;;;;;;;7.13;6.50;;;18.50;99.90;20.00;96859.00;;;;5098909;28;20230;-73
2022/07/29 00:31:49;;;;;;;8.13;6.70;;;18.50;99.90;19.60;96848.00;;;;5102365;28;20233;-71
2022/07/29 00:37:44;;;;;;;7.43;6.73;;;18.40;99.90;19.90;96851.00;;;;5104438;28;20217;-77
2022/07/29 00:40:33;;;;;;;7.37;5.90;;;18.50;99.90;19.80;96847.00;;;;5097138;28;20694;-72
2022/07/29 00:43:22;;;;;;;6.47;5.83;;;18.50;99.90;19.70;96849.00;;;;5093916;28;20596;-74
2022/07/29 00:46:12;;;;;;;7.00;6.30;;;18.40;99.90;20.10;96846.00;;;;5102332;28;20195;-73
2022/07/29 00:49:01;;;;;;;6.60;6.00;;;18.40;99.90;20.20;96847.00;;;;5097818;28;20226;-74
2022/07/29 00:51:50;;;;;;;7.07;6.47;;;18.50;99.90;20.10;96844.00;;;;5094186;28;20230;-73
2022/07/29 00:54:41;;;;;;;6.97;6.40;;;18.50;99.90;19.90;96846.00;;;;5092781;28;20198;-75
2022/07/29 00:57:29;;;;;;;6.93;6.23;;;18.50;99.90;19.70;96844.00;;;;5100395;28;20232;-76
2022/07/29 01:00:20;;;;;;;8.37;5.80;;;18.50;99.90;19.60;96848.00;;;;5101512;28;20215;-73
2022/07/29 01:03:10;;;;;;;7.77;6.50;;;18.40;99.90;19.60;96842.00;;;;5096861;28;20209;-74
2022/07/29 01:06:00;;;;;;;9.40;6.77;;;18.40;99.90;19.80;96843.00;;;;5103142;28;20574;-74
2022/07/29 01:08:50;;;;;;;6.70;5.77;;;18.40;99.90;19.80;96836.00;;;;5093358;28;20321;-74
2022/07/29 01:11:40;;;;;;;11.07;7.17;;;18.40;99.90;19.80;96836.00;;;;5103119;28;20225;-74
2022/07/29 01:14:30;;;;;;;6.37;5.77;;;18.40;99.90;19.70;96839.00;;;;5095540;28;20220;-73
2022/07/29 01:17:26;;;;;;;9.23;6.20;;;18.50;99.90;19.40;96845.00;;;;5106440;28;20217;-72
2022/07/29 01:20:26;;;;;;;9.13;6.17;;;18.40;99.90;19.50;96846.00;;;;5107249;28;20222;-76
2022/07/29 01:23:53;;;;;;;6.47;5.87;;;18.40;99.90;19.70;96842.00;;;;5099147;28;20207;-76
2022/07/29 01:26:50;;;;;;;7.77;6.30;;;18.40;99.90;19.80;96836.00;;;;5104227;28;20202;-76
2022/07/29 01:29:45;;;;;;;6.10;5.50;;;18.40;99.90;19.70;96837.00;;;;5095020;28;20706;-76
2022/07/29 01:32:39;;;;;;;9.30;7.00;;;18.40;99.90;19.60;96837.00;;;;5099836;28;20203;-76
2022/07/29 01:35:34;;;;;;;7.00;6.27;;;18.50;99.90;19.80;96837.00;;;;5099886;28;20195;-77
2022/07/29 01:38:28;;;;;;;6.80;6.10;;;18.40;99.90;19.70;96839.00;;;;5106580;28;20692;-77
2022/07/29 01:41:20;;;;;;;8.23;6.93;;;18.50;99.90;19.50;96831.00;;;;5092917;28;20234;-74
2022/07/29 01:44:18;;;;;;;7.73;5.90;;;18.40;99.90;19.20;96830.00;;;;5100810;28;20670;-75
2022/07/29 01:47:15;;;;;;;8.60;7.70;;;18.40;99.90;19.20;96825.00;;;;5098953;28;20206;-70
2022/07/29 01:50:09;;;;;;;8.43;7.73;;;18.20;99.90;19.10;96834.00;;;;5108981;28;20601;-74
2022/07/29 01:53:02;;;;;;;8.67;7.27;;;18.20;99.90;19.30;96815.00;;;;5108036;28;20210;-73
2022/07/29 01:55:52;;;;;;;7.17;6.47;;;18.20;99.90;19.30;96813.00;;;;5106850;28;20199;-73
2022/07/29 01:58:42;;;;;;;7.33;6.67;;;18.10;99.90;19.60;96813.00;;;;5099980;28;20197;-73
2022/07/29 02:01:33;;;;;;;7.33;6.70;;;18.20;99.90;19.70;96815.00;;;;5095677;28;20218;-74
2022/07/29 02:04:25;;;;;;;10.17;7.20;;;18.20;99.90;19.70;96805.00;;;;5094154;28;20215;-73
2022/07/29 02:07:19;;;;;;;7.97;7.27;;;18.30;99.90;19.70;96808.00;;;;5102677;28;20195;-73
2022/07/29 02:10:10;;;;;;;6.80;6.20;;;18.30;99.90;19.50;96805.00;;;;5107624;28;20245;-74
2022/07/29 02:13:00;;;;;;;7.23;6.53;;;18.30;99.90;19.30;96800.00;;;;5097082;28;20202;-73
2022/07/29 02:15:51;;;;;;;6.97;6.23;;;18.30;99.90;19.20;96795.00;;;;5099590;28;20203;-73
2022/07/29 02:18:43;;;;;;;7.33;6.63;;;18.20;99.90;19.20;96790.00;;;;5092804;28;20200;-75
2022/07/29 02:21:36;;;;;;;6.80;6.20;;;18.10;99.90;19.30;96797.00;;;;5108427;28;20219;-74
2022/07/29 02:24:26;;;;;;;9.07;7.23;;;18.10;99.90;19.40;96803.00;;;;5100947;28;20199;-75
2022/07/29 02:27:16;;;;;;;9.77;7.20;;;18.10;99.90;19.30;96802.00;;;;5092603;28;20677;-74
2022/07/29 02:30:07;;;;;;;8.47;6.67;;;18.10;99.90;19.20;96798.00;;;;5101865;28;20229;-74
2022/07/29 02:32:57;;;;;;;7.33;6.43;;;18.00;99.90;19.00;96800.00;;;;5094608;28;20206;-73
2022/07/29 02:35:48;;;;;;;8.17;7.47;;;18.00;99.90;19.00;96794.00;;;;5097619;28;20202;-74
2022/07/29 02:38:51;;;;;;;7.80;7.10;;;17.90;99.90;19.10;96794.00;;;;5097296;28;20208;-74
2022/07/29 02:41:45;;;;;;;7.60;6.93;;;17.90;99.90;19.10;96794.00;;;;5092258;28;20273;-73
2022/07/29 02:44:35;;;;;;;6.43;5.90;;;17.90;99.90;19.00;96787.00;;;;5101364;28;20209;-74
2022/07/29 02:47:31;;;;;;;7.87;7.17;;;17.80;99.90;19.00;96791.00;;;;5090269;28;20183;-74
2022/07/29 02:50:31;;;;;;;8.37;7.57;;;17.80;99.90;18.90;96792.00;;;;5104129;28;20223;-73
2022/07/29 02:53:24;;;;;;;8.73;6.97;;;17.80;99.90;18.90;96796.00;;;;5107616;28;20206;-75
2022/07/29 02:56:18;;;;;;;8.37;7.57;;;17.80;99.90;18.70;96789.00;;;;5108010;28;20203;-73
2022/07/29 02:59:12;;;;;;;10.70;7.23;;;17.70;99.90;18.50;96797.00;;;;5091944;28;20215;-75
2022/07/29 03:02:01;;;;;;;10.00;8.43;;;17.60;99.90;18.60;96792.00;;;;5106691;28;20187;-73
2022/07/29 03:04:51;;;;;;;8.50;7.70;;;17.50;99.90;18.60;96779.00;;;;5095912;28;20186;-73
2022/07/29 03:07:44;;;;;;;8.83;7.93;;;17.50;99.90;18.30;96787.00;;;;5106491;28;20580;-72
2022/07/29 03:10:33;;;;;;;7.80;7.10;;;17.40;99.90;17.70;96794.00;;;;5095429;28;20226;-75
2022/07/29 03:13:24;;;;;;;8.17;7.43;;;17.20;99.90;17.90;96793.00;;;;5090790;28;20218;-74
2022/07/29 03:16:14;;;;;;;9.13;7.50;;;17.10;99.90;17.90;96796.00;;;;5096925;28;20205;-73
2022/07/29 03:19:03;;;;;;;8.43;7.40;;;17.00;99.90;18.00;96793.00;;;;5097744;28;20195;-72
2022/07/29 03:21:53;;;;;;;9.30;8.47;;;17.00;99.90;18.20;96783.00;;;;5101320;28;20221;-73
2022/07/29 03:24:41;;;;;;;8.93;8.13;;;16.90;99.90;18.30;96789.00;;;;5096813;28;20681;-72
2022/07/29 03:27:30;;;;;;;10.23;7.57;;;17.00;99.90;18.40;96794.00;;;;5096527;28;20678;-72
2022/07/29 03:30:20;;;;;;;8.70;8.00;;;17.00;99.90;18.20;96786.00;;;;5091094;28;20702;-72
2022/07/29 03:33:10;;;;;;;9.13;8.27;;;17.00;99.90;18.00;96781.00;;;;5090253;28;20188;-73
2022/07/29 03:35:58;;;;;;;8.97;8.20;;;17.00;99.90;17.80;96786.00;;;;5090657;28;20202;-73
2022/07/29 03:38:49;;;;;;;8.60;7.70;;;16.90;99.90;17.90;96780.00;;;;5100212;28;20685;-73
2022/07/29 03:41:41;;;;;;;10.17;7.90;;;16.90;99.90;17.90;96789.00;;;;5092996;28;20227;-76
2022/07/29 03:44:32;;;;;;;10.10;7.87;;;16.90;99.90;17.70;96793.00;;;;5100286;28;20198;-77
2022/07/29 03:47:26;;;;;;;9.53;7.67;;;16.80;99.90;17.30;96794.00;;;;5097496;28;20684;-74
2022/07/29 03:50:19;;;;;;;7.83;7.03;;;16.70;99.90;17.40;96798.00;;;;5103357;28;20226;-70
2022/07/29 03:53:08;;;;;;;8.63;7.83;;;16.60;99.90;17.60;96802.00;;;;5105812;28;20212;-74
2022/07/29 03:56:01;;;;;;;8.37;7.53;;;16.60;99.90;17.80;96791.00;;;;5090267;28;20203;-73
2022/07/29 03:58:52;;;;;;;8.40;7.57;;;16.60;99.90;17.60;96796.00;;;;5089972;28;20202;-75
2022/07/29 04:01:42;;;;;;;8.53;7.70;;;16.60;99.90;17.60;96793.00;;;;5095564;28;20214;-75
2022/07/29 04:04:34;;;;;;;9.37;8.33;;;16.50;99.90;17.20;96792.00;;;;5096337;28;20191;-75
2022/07/29 04:07:23;;;;;;;9.80;8.80;;;16.40;99.90;16.90;96797.00;;;;5087766;28;20202;-71
2022/07/29 04:10:11;;;;;;;9.80;8.80;;;16.40;99.90;17.30;96798.00;;;;5087248;28;20230;-74
2022/07/29 04:13:00;;;;;;;9.50;8.30;;;16.30;99.90;17.50;96795.00;;;;5098725;28;20207;-71
2022/07/29 04:15:49;;;;;;;9.17;8.20;;;16.40;99.90;17.50;96805.00;;;;5105531;28;20210;-73
2022/07/29 04:18:38;;;;;;;10.47;9.20;;;16.40;99.90;17.80;96793.00;;;;5105040;28;20226;-73
2022/07/29 04:21:28;;;;;;;9.33;8.53;;;16.50;99.90;17.40;96802.00;;;;5087545;28;20230;-76
2022/07/29 04:24:17;;;;;;;8.97;7.83;;;16.40;99.90;17.40;96800.00;;;;5090913;28;20198;-72
2022/07/29 04:27:06;;;;;;;11.43;8.77;;;16.40;99.90;17.70;96803.00;;;;5090573;28;20211;-76
2022/07/29 04:29:54;;;;;;;9.60;7.73;;;16.50;99.90;17.70;96802.00;;;;5107832;28;20225;-75
2022/07/29 04:32:43;;;;;;;9.20;8.23;;;16.50;99.90;17.70;96804.00;;;;5105309;28;20685;-73
2022/07/29 04:35:36;;;;;;;12.23;8.73;;;16.50;99.90;17.40;96803.00;;;;5098100;28;20198;-76
2022/07/29 04:38:26;;;;;;;9.10;8.27;;;16.50;99.90;17.20;96807.00;;;;5107954;28;20203;-77
2022/07/29 04:41:15;;;;;;;8.23;7.50;;;16.40;99.90;17.70;96807.00;;;;5098119;28;20235;-73
2022/07/29 04:44:05;;;;;;;9.27;8.37;;;16.40;99.90;17.70;96806.00;;;;5099103;28;20209;-71
2022/07/29 04:46:53;;;;;;;9.53;7.67;;;16.50;99.90;18.00;96807.00;;;;5112860;28;20221;-75
2022/07/29 04:49:42;;;;;;;10.33;8.43;;;16.70;99.90;17.90;96799.00;;;;5100962;28;20231;-72
2022/07/29 04:52:34;;;;;;;9.10;8.20;;;16.70;99.90;18.20;96803.00;;;;5098304;22;20230;-89
2022/07/29 04:55:24;;;;;;;8.67;7.83;;;16.80;99.90;18.50;96806.00;;;;5090062;28;20226;-90
2022/07/29 04:58:13;;;;;;;8.00;7.23;;;16.90;99.90;18.10;96802.00;;;;5097122;28;20195;-90
2022/07/29 05:04:24;;;;;;;9.37;8.57;;;17.00;99.90;18.20;96806.00;;;;5095612;28;20649;-88
2022/07/29 05:07:14;;;;;;;10.03;6.93;;;;;17.70;96789.00;;;;5093228;28;20708;-89
2022/07/29 05:10:03;;;;;;;9.47;8.47;;;;;18.20;96797.00;;;;5095431;28;20215;-89
2022/07/29 05:12:54;;;;;;;9.37;7.87;;;17.10;99.90;18.10;96790.00;;;;5091403;28;20218;-87
2022/07/29 05:15:43;;;;;;;11.10;8.70;;;;;18.60;96794.00;;;;5096238;28;20226;-88
2022/07/29 05:18:32;;;;;;;9.33;8.40;;;17.30;99.90;18.70;96797.00;;;;5091963;28;20248;-88
2022/07/29 05:21:21;;;;;;;8.30;7.50;;;17.40;99.90;19.00;96803.00;;;;5094770;28;20205;-90
2022/07/29 05:24:10;;;;;;;8.07;7.37;;;17.60;99.90;19.10;96789.00;;;;5094546;28;20219;-89
2022/07/29 05:26:59;;;;;;;10.30;8.20;;;;;19.30;96798.00;;;;5092087;28;20203;-89
2022/07/29 05:29:50;;;;;;;8.87;7.87;;;18.00;99.90;19.40;96800.00;;;;5086921;28;20230;-88
2022/07/29 05:32:38;;;;;;;9.63;7.47;;;18.00;99.90;19.30;96806.00;;;;5092806;28;20205;-88
2022/07/29 05:35:27;;;;;;;9.00;8.10;;;18.10;99.90;19.40;96804.00;;;;5095134;28;20223;-88
2022/07/29 05:38:16;;;;;;;9.57;7.80;;;18.20;99.90;19.40;96799.00;;;;5096212;28;20206;-89
2022/07/29 05:41:06;;;;;;;9.57;7.97;;;18.30;99.90;19.70;96811.00;;;;5090044;28;20202;-90
2022/07/29 05:43:55;;;;;;;8.83;7.70;;;18.40;99.90;19.70;96798.00;;;;5081321;28;20235;-88
2022/07/29 05:46:45;;;;;;;9.47;8.07;;;18.40;99.90;19.80;96792.00;;;;5090108;28;20582;-89
2022/07/29 05:49:34;;;;;;;8.93;7.30;;;18.60;99.90;20.10;96799.00;;;;5087352;28;20654;-88
2022/07/29 05:52:23;;;;;;;10.93;7.57;;;18.70;99.90;20.30;96801.00;;;;5083848;28;20218;-88
2022/07/29 05:55:12;;;;;;;9.30;8.00;;;18.80;99.90;20.70;96794.00;;;;5097104;27;20226;-88
2022/07/29 05:58:00;;;;;;;9.67;8.60;;;19.00;99.90;21.00;96790.00;;;;5099004;28;20575;-89
2022/07/29 06:00:50;;;;;;;9.43;8.53;;;19.20;99.90;21.50;96799.00;;;;5096932;28;20204;-89
2022/07/29 06:03:41;;;;;;;8.30;6.53;;;19.50;99.90;21.80;96798.00;;;;5097801;28;20199;-89
2022/07/29 06:06:29;;;;;;;7.23;6.03;;;19.70;99.90;21.60;96799.00;;;;5097449;28;20195;-90
2022/07/29 06:09:18;;;;;;;6.97;5.37;;;19.90;99.90;21.70;96801.00;;;;5095274;28;20207;-89
2022/07/29 06:12:08;;;;;;;7.20;5.57;;;20.10;99.90;21.80;96799.00;;;;5093478;28;20226;-89
2022/07/29 06:14:56;;;;;;;6.80;6.10;;;20.20;99.90;22.20;96799.00;;;;5096530;28;20222;-89
2022/07/29 06:17:45;;;;;;;8.40;6.50;;;20.30;99.90;22.50;96805.00;;;;5097048;28;20199;-89
2022/07/29 06:20:36;;;;;;;6.53;5.87;;;20.50;99.90;22.60;96806.00;;;;5093903;28;20241;-90
2022/07/29 06:23:24;;;;;;;9.77;6.30;;;20.70;99.90;22.60;96803.00;;;;5099717;28;20191;-89
2022/07/29 06:26:13;;;;;;;6.07;5.53;;;20.80;99.90;22.50;96806.00;;;;5099214;28;20198;-89
2022/07/29 06:29:02;;;;;;;5.63;5.13;;;21.00;99.90;22.80;96805.00;;;;5097073;28;20222;-89
2022/07/29 06:31:51;;;;;;;6.87;5.03;;;21.10;99.90;23.20;96798.00;;;;5096137;28;20219;-89
2022/07/29 06:34:40;;;;;;;6.63;5.00;;;;;23.20;96804.00;;;;5097179;28;20227;-89
2022/07/29 06:37:30;;;;;;;9.33;5.87;;;21.40;99.90;23.40;96799.00;;;;5084688;28;20665;-90
2022/07/29 06:43:26;;;;;;;6.33;5.67;;;21.80;99.90;24.10;96787.00;;;;5098634;28;20203;-89
2022/07/29 06:46:17;;;;;;;5.50;5.00;;;22.00;99.90;24.10;96789.00;;;;5098569;28;20219;-88
2022/07/29 06:49:09;;;;;;;12.27;6.50;;;22.10;99.90;24.50;96785.00;;;;5082289;28;20207;-90
2022/07/29 06:52:02;;;;;;;7.00;5.60;;;22.30;99.90;24.40;96793.00;;;;5095442;28;20212;-89
2022/07/29 06:54:56;;;;;;;6.33;5.80;;;22.50;99.90;24.30;96794.00;;;;5095041;28;20211;-90
2022/07/29 07:01:06;;;;;;;10.80;5.50;;;22.80;99.90;24.60;96797.00;;;;5092934;28;20777;-90
2022/07/29 07:03:57;;;;;;;6.43;5.83;;;;;24.60;96799.00;;;;5092736;28;20218;-90
2022/07/29 07:06:58;;;;;;;8.23;4.83;;;;;24.90;96801.00;;;;5089608;28;20215;-88
2022/07/29 07:09:50;;;;;;;6.83;5.30;;;;;25.20;96813.00;;;;5093051;28;20214;-89
2022/07/29 07:12:41;;;;;;;9.87;5.50;;;23.30;99.90;25.30;96807.00;;;;5097114;28;20700;-89
2022/07/29 07:15:30;;;;;;;9.17;4.97;;;23.30;99.90;25.50;96799.00;;;;5085547;28;20229;-90
2022/07/29 07:18:20;;;;;;;8.73;5.23;;;23.50;99.90;25.70;96799.00;;;;5096399;28;20203;-90
2022/07/29 07:21:08;;;;;;;12.13;5.70;;;23.60;99.90;25.80;96795.00;;;;5097586;28;20223;-88
2022/07/29 07:23:58;;;;;;;5.97;5.37;;;23.80;99.90;25.90;96795.00;;;;5089310;28;20841;-88
2022/07/29 07:26:47;;;;;;;6.50;4.80;;;24.00;99.90;25.90;96798.00;;;;5093554;28;20210;-89
2022/07/29 07:29:40;;;;;;;4.87;4.47;;;24.00;99.90;26.20;96801.00;;;;5093071;28;20213;-89
2022/07/29 07:32:30;;;;;;;7.40;4.70;;;24.20;99.90;26.50;96805.00;;;;5080701;28;20207;-90
2022/07/29 07:35:19;;;;;;;6.07;5.03;;;;;26.60;96804.00;;;;5093100;28;20223;-89
2022/07/29 07:38:08;;;;;;;4.97;4.47;;;24.50;99.90;26.70;96809.00;;;;5094602;28;20222;-90
2022/07/29 07:40:57;;;;;;;5.70;5.17;;;24.70;99.90;26.80;96807.00;;;;5095504;28;20242;-90
2022/07/29 07:43:46;;;;;;;5.50;4.30;;;24.80;99.90;27.00;96809.00;;;;5092081;28;20194;-91
2022/07/29 07:46:36;;;;;;;5.23;4.73;;;24.90;99.90;27.30;96807.00;;;;5093731;28;20212;-89
2022/07/29 07:49:25;;;;;;;4.70;4.20;;;25.10;99.90;27.40;96806.00;;;;5093199;28;20628;-89
2022/07/29 07:53:05;;;;;;;7.43;4.13;;;25.20;99.90;27.50;96807.00;;;;5104514;27;20581;-66
2022/07/29 07:55:54;;;;;;;5.40;4.90;;;25.40;99.90;27.60;96804.00;;;;5096349;28;20220;-66
2022/07/29 07:58:59;;;;;;;4.40;3.93;;;25.60;99.90;28.00;96804.00;;;;5096592;28;20699;-67
2022/07/29 08:01:48;;;;;;;7.63;4.47;;;25.80;99.90;28.10;96803.00;;;;5104863;28;20609;-65
2022/07/29 08:04:37;;;;;;;4.63;4.30;;;25.90;99.90;28.30;96797.00;;;;5122717;28;20574;-66
2022/07/29 08:07:25;;;;;;;7.73;5.03;;;26.10;99.90;28.40;96802.00;;;;5124527;28;20704;-66
2022/07/29 08:10:51;;;;;;;5.43;4.50;;;26.30;99.90;28.30;96799.00;;;;5124747;28;20577;-67
2022/07/29 08:13:29;;;;;;;4.33;3.67;;;26.40;99.90;28.60;96799.00;;;;5125587;28;20207;-67
2022/07/29 08:16:18;;;;;;;7.50;4.50;;;26.50;99.90;28.30;96805.00;;;;5124738;28;20204;-67
2022/07/29 08:19:07;;;;;;;7.33;4.30;;;26.50;99.90;28.30;96810.00;;;;5121177;28;20218;-67
2022/07/29 08:21:56;;;;;;;6.20;3.87;;;26.50;99.90;28.90;96804.00;;;;5117193;28;20228;-67
2022/07/29 08:24:52;;;;;;;5.27;4.77;;;26.60;99.90;29.00;96803.00;;;;5104406;28;20203;-67
2022/07/29 08:27:42;;;;;;;7.30;4.23;;;26.80;99.90;29.20;96801.00;;;;5112668;27;20675;-67
2022/07/29 08:30:32;;;;;;;5.33;3.87;;;27.00;99.90;29.70;96804.00;;;;5119697;27;20200;-67
2022/07/29 08:33:20;;;;;;;4.80;4.40;;;27.30;99.90;30.00;96812.00;;;;5123699;28;20206;-67
2022/07/29 08:36:10;;;;;;;7.07;3.90;;;27.50;99.90;29.70;96811.00;;;;5107980;28;20199;-67
2022/07/29 08:38:59;;;;;;;6.80;4.57;;;27.70;99.90;29.00;96818.00;;;;5123184;28;20211;-66
2022/07/29 08:41:48;;;;;;;4.50;4.10;;;27.70;98.80;28.90;96823.00;;;;5119286;28;20220;-66
2022/07/29 08:44:39;;;;;;;4.70;3.50;;;27.40;98.40;29.60;96817.00;;;;5110676;28;20221;-66
2022/07/29 08:47:29;;;;;;;5.37;4.27;;;27.50;99.10;29.80;96813.00;;;;5113384;28;20201;-67
2022/07/29 08:50:18;;;;;;;6.07;3.67;;;27.60;99.30;29.90;96830.00;;;;5123420;28;20663;-66
2022/07/29 08:53:08;;;;;;;5.17;3.80;;;27.80;98.70;29.60;96837.00;;;;5109254;28;20236;-67
2022/07/29 08:55:58;;;;;;;3.80;3.47;;;27.70;97.20;29.70;96836.00;;;;5115005;27;20207;-67
2022/07/29 08:58:48;;;;;;;3.70;3.40;;;28.20;97.70;30.30;96808.00;;;;5116432;27;20626;-67
2022/07/29 09:01:40;;;;;;;6.03;3.90;;;27.90;97.50;30.10;96815.00;;;;5120345;28;20758;-67
2022/07/29 09:04:35;;;;;;;4.03;3.67;;;28.10;96.40;29.70;96828.00;;;;5104068;28;20203;-66
2022/07/29 09:07:25;;;;;;;4.57;3.80;;;28.10;94.60;29.60;96822.00;;;;5100773;28;20201;-67
2022/07/29 09:10:14;;;;;;;4.17;3.80;;;28.00;95.10;29.70;96828.00;;;;5089922;28;20679;-66
2022/07/29 09:13:03;;;;;;;3.80;3.50;;;28.00;95.00;30.40;96834.00;;;;5103689;27;20223;-67
2022/07/29 09:15:53;;;;;;;4.07;3.33;;;28.10;93.60;30.20;96833.00;;;;5099848;27;20205;-67
2022/07/29 09:18:44;;;;;;;4.77;3.50;;;28.10;93.90;29.90;96844.00;;;;5094281;27;20209;-67
2022/07/29 09:24:54;;;;;;;3.43;2.80;;;28.10;92.70;29.80;96832.00;;;;5083841;27;20212;-66
2022/07/29 09:27:50;;;;;;;4.87;4.37;;;28.00;92.00;29.30;96839.00;;;;5090481;27;20208;-67
2022/07/29 09:30:52;;;;;;;4.47;4.07;;;27.90;93.50;28.70;96835.00;;;;5108994;27;20607;-67
2022/07/29 09:33:42;;;;;;;5.17;4.03;;;27.70;93.90;29.30;96840.00;;;;5107559;28;20230;-66
2022/07/29 09:36:31;;;;;;;4.50;4.10;;;27.60;95.20;29.50;96842.00;;;;5104622;28;20252;-67
2022/07/29 09:39:30;;;;;;;4.13;3.73;;;27.60;95.80;29.50;96838.00;;;;5109280;28;20579;-67
2022/07/29 09:42:29;;;;;;;4.07;3.27;;;27.60;95.20;29.50;96850.00;;;;5099867;27;20206;-67
2022/07/29 09:45:30;;;;;;;6.37;4.00;;;27.60;94.90;29.30;96846.00;;;;5106107;27;20203;-66
2022/07/29 09:48:21;;;;;;;5.30;3.50;;;27.60;94.90;29.30;96849.00;;;;5112990;27;20661;-67
2022/07/29 09:51:20;;;;;;;7.13;4.10;;;27.60;94.80;29.30;96845.00;;;;5116311;27;20244;-67
2022/07/29 09:54:25;;;;;;;4.77;4.27;;;27.60;94.90;28.70;96832.00;;;;5116083;27;20667;-67
2022/07/29 09:57:25;;;;;;;4.10;3.77;;;27.50;94.60;28.90;96844.00;;;;5104497;27;20197;-66
2022/07/29 10:00:19;;;;;;;5.93;4.33;;;27.50;94.80;27.80;96847.00;;;;5110306;27;20208;-66
2022/07/29 10:03:08;;;;;;;5.17;4.47;;;27.10;94.90;27.70;96857.00;;;;5109765;27;20204;-68
2022/07/29 10:06:09;;;;;;;4.40;4.00;;;26.80;95.20;28.00;96856.00;;;;5107185;28;20201;-67
2022/07/29 10:09:10;;;;;;;6.23;5.43;;;26.80;96.10;27.80;96859.00;;;;5106230;28;20230;-67
2022/07/29 10:12:10;;;;;;;3.90;3.60;;;26.70;95.60;27.80;96855.00;;;;5104319;28;20720;-67
2022/07/29 10:14:59;;;;;;;5.93;3.90;;;26.50;95.90;28.00;96851.00;;;;5104274;28;20206;-67
2022/07/29 10:17:48;;;;;;;6.63;4.40;;;26.50;97.00;27.70;96850.00;;;;5106983;27;20209;-67
2022/07/29 10:20:38;;;;;;;4.87;3.30;;;26.50;95.30;27.60;96854.00;;;;5102698;27;20202;-67
2022/07/29 10:23:28;;;;;;;6.13;4.10;;;26.30;94.30;27.70;96857.00;;;;5102377;28;20211;-65
2022/07/29 10:26:19;;;;;;;4.17;3.70;;;26.20;95.60;27.70;96857.00;;;;5110100;27;20216;-66
2022/07/29 10:29:08;;;;;;;4.57;4.07;;;26.20;96.90;28.10;96858.00;;;;5105559;27;20207;-66
2022/07/29 10:32:25;;;;;;;4.90;4.50;;;26.20;97.00;27.70;96847.00;;;;5103423;28;20227;-66
2022/07/29 10:35:34;;;;;;;6.80;4.50;;;26.20;96.70;27.30;96846.00;;;;5104239;27;20206;-65
2022/07/29 10:38:49;;;;;;;4.27;3.77;;;26.10;98.40;27.50;96843.00;;;;5102764;28;20201;-67
2022/07/29 10:42:14;;;;;;;5.67;4.60;;;26.10;98.50;28.10;96840.00;;;;5115734;27;20219;-67
2022/07/29 10:45:05;;;;;;;7.10;4.80;;;26.10;99.90;28.30;96838.00;;;;5101443;27;20202;-67
2022/07/29 10:48:05;;;;;;;5.63;5.13;;;26.30;99.90;28.30;96832.00;;;;5106520;27;20208;-67
2022/07/29 10:50:56;;;;;;;5.23;4.40;;;26.50;99.90;28.70;96820.00;;;;5126078;22;20728;-73
2022/07/29 10:53:50;;;;;;;6.50;5.20;;;26.70;99.90;28.00;96813.00;;;;5044634;28;20228;-67
2022/07/29 10:56:40;;;;;;;5.37;4.87;;;26.80;99.00;27.80;96809.00;;;;5046533;28;20252;-76
2022/07/29 10:59:31;;;;;;;5.17;4.70;;;26.70;98.50;28.30;96785.00;;;;5046257;28;20204;-69
2022/07/29 11:02:50;;;;;;;6.73;5.47;;;26.80;98.60;29.10;96778.00;;;;5052076;28;20217;-79
2022/07/29 11:05:55;;;;;;;7.17;5.03;;;27.00;98.00;30.00;96761.00;;;;5061089;28;20227;-76
2022/07/29 11:08:44;;;;;;;6.00;5.27;;;27.50;98.00;30.60;96757.00;;;;5062111;28;20201;-71
2022/07/29 11:11:34;;;;;;;7.40;5.10;;;28.00;96.90;32.30;96763.00;;;;5054971;28;20218;-71
2022/07/29 11:15:02;;;;;;;5.40;4.73;;;28.70;97.60;33.30;96756.00;;;;5058782;28;20251;-72
2022/07/29 11:18:10;;;;;;;8.10;4.40;;;29.60;97.00;34.00;96776.00;;;;5048170;28;20203;-71
2022/07/29 11:20:59;;;;;;;4.63;4.22;;;30.60;95.00;33.40;96756.00;;;;5056198;28;20215;-71
2022/07/29 11:23:48;;;;;;;5.00;4.60;;;30.90;92.20;34.60;96751.00;;;;5060366;28;20255;-72
2022/07/29 11:26:37;;;;;;;4.80;3.45;;;31.50;90.60;34.80;96750.00;;;;5056632;28;20214;-72
2022/07/29 11:29:26;;;;;;;8.82;3.50;;;31.90;83.50;35.10;96749.00;;;;5058216;28;20206;-75
2022/07/29 11:32:19;;;;;;;3.63;3.33;;;32.30;83.60;35.80;96772.00;;;;5060242;28;20222;-74
2022/07/29 11:35:18;;;;;;;4.50;4.07;;;32.70;82.20;35.70;96785.00;;;;5058073;28;20207;-75
2022/07/29 11:38:27;;;;;;;4.10;3.70;;;32.90;80.30;34.70;96794.00;;;;5059487;28;20207;-74
2022/07/29 11:41:25;;;;;;;4.07;3.67;;;32.90;76.20;35.00;96776.00;;;;5060486;28;20220;-73
2022/07/29 11:44:15;;;;;;;4.03;3.63;;;32.90;78.10;34.40;96773.00;;;;5061324;28;20200;-79
2022/07/29 11:47:04;;;;;;;5.13;3.63;;;32.80;71.50;34.00;96776.00;;;;5067477;28;20207;-75
2022/07/29 11:49:57;;;;;;;3.88;3.58;;;32.50;71.80;33.60;96800.00;;;;5059971;28;20211;-73
2022/07/29 11:52:47;;;;;;;5.15;3.38;;;32.20;71.20;34.10;96788.00;;;;5056344;28;20230;-74
2022/07/29 11:55:39;;;;;;;8.50;3.55;;;32.00;73.20;33.80;96787.00;;;;5056690;28;20224;-75
2022/07/29 11:58:29;;;;;;;3.75;2.67;;;32.00;72.70;33.60;96804.00;;;;5055275;28;20226;-78
2022/07/29 12:01:21;;;;;;;3.08;2.80;;;31.90;72.00;33.10;96812.00;;;;5067734;28;20241;-78
2022/07/29 12:04:09;;;;;;;4.20;3.22;;;31.60;73.00;33.40;96788.00;;;;5067819;28;20580;-77
2022/07/29 12:07:00;;;;;;;5.38;3.47;;;31.50;73.70;33.50;96804.00;;;;5070419;28;20209;-77
2022/07/29 12:09:51;;;;;;;6.10;3.10;;;31.40;74.40;32.00;96810.00;;;;5061610;28;20601;-77
2022/07/29 12:12:40;;;;;;;3.15;2.95;;;31.20;72.90;31.20;96821.00;;;;5069175;28;20216;-77
2022/07/29 12:15:29;;;;;;;6.47;4.00;;;30.70;72.40;30.20;96818.00;;;;5066050;28;20193;-72
2022/07/29 12:18:21;;;;;;;3.78;3.42;;;30.20;72.50;29.30;96809.00;;;;5058158;28;20916;-71
2022/07/29 12:21:09;;;;;;;5.15;4.22;;;29.40;75.60;29.70;96780.00;;;;5057449;28;20239;-75
2022/07/29 12:24:00;;;;;;;3.70;3.40;;;29.00;77.60;29.70;96798.00;;;;5058101;28;20212;-74
2022/07/29 12:26:53;;;;;;;4.23;3.30;;;28.80;76.90;29.40;96799.00;;;;5062319;28;20201;-78
2022/07/29 12:29:42;;;;;;;5.13;3.73;;;28.50;79.30;29.30;96805.00;;;;5060080;28;20196;-73
2022/07/29 12:32:35;;;;;;;4.40;3.77;;;28.20;78.30;28.90;96808.00;;;;5061466;28;20229;-77
2022/07/29 12:35:24;;;;;;;7.27;4.40;;;28.00;79.80;29.30;96797.00;;;;5060043;28;20205;-75
2022/07/29 12:38:15;;;;;;;4.50;3.83;;;27.90;79.80;28.70;96786.00;;;;5059728;28;20207;-66
2022/07/29 12:41:05;;;;;;;4.10;3.50;;;27.80;81.30;28.30;96792.00;;;;5063838;28;20227;-75
2022/07/29 12:43:55;;;;;;;4.20;3.80;;;27.60;80.50;28.70;96800.00;;;;5055230;28;20202;-66
2022/07/29 12:46:46;;;;;;;4.10;3.70;;;27.50;82.10;28.70;96798.00;;;;5061492;28;20191;-75
2022/07/29 12:49:35;;;;;;;6.53;4.00;;;27.40;82.80;28.70;96804.00;;;;5062584;28;20211;-70
2022/07/29 12:52:29;;;;;;;4.00;3.60;;;27.40;82.00;28.60;96801.00;;;;5061742;28;20234;-70
2022/07/29 12:55:48;;;;;;;5.70;3.80;;;27.70;82.50;28.90;96795.00;;;;5061584;28;20222;-69
2022/07/29 12:58:40;;;;;;;4.37;3.97;;;27.40;80.60;29.10;96790.00;;;;5054908;28;20215;-75
2022/07/29 13:01:37;;;;;;;5.93;3.77;;;27.50;79.50;29.50;96785.00;;;;5061634;28;20233;-75
2022/07/29 13:04:28;;;;;;;4.43;2.90;;;27.60;82.00;30.00;96786.00;;;;5060186;28;20714;-74